Time;durP1;ratioP1;P1;durP2;ratioP2;P2;SDS_P1;SDS_P2;PMS_P1;PMS_P2;Temp;Humidity;BMP_temperature;BMP_pressure;BME280_temperature;BME280_humidity;BME280_pressure;Samples;Min_cycle;Max_cycle;Signal;HPM_P1;HPM_P2
2022/11/23 00:00:58;;;;;;;10.10;5.10;;;;;;;;;;5063966;28;20612;-74
2022/11/23 00:03:24;;;;;;;10.68;5.38;;;;;;;;;;5061505;28;20046;-73
2022/11/23 00:05:50;;;;;;;9.75;4.28;;;;;;;;;;5059413;28;20029;-73
2022/11/23 00:08:16;;;;;;;11.10;3.60;;;;;;;;;;5074343;28;20069;-73
2022/11/23 00:10:42;;;;;;;9.32;3.22;;;;;;;;;;5068356;28;20032;-73
2022/11/23 00:13:08;;;;;;;8.38;3.35;;;;;;;;;;5075235;28;20043;-73
2022/11/23 00:15:34;;;;;;;11.50;3.15;;;;;;;;;;5070580;28;20036;-73
2022/11/23 00:18:01;;;;;;;9.32;4.53;;;;;;;;;;5060531;28;20021;-73
2022/11/23 00:20:27;;;;;;;8.43;4.15;;;;;;;;;;5065888;28;20032;-73
2022/11/23 00:22:53;;;;;;;10.75;5.22;;;;;;;;;;5080983;28;20034;-73
2022/11/23 00:25:19;;;;;;;11.65;4.20;;;;;;;;;;5065022;28;20039;-73
2022/11/23 00:27:45;;;;;;;7.13;3.33;;;;;;;;;;5068056;28;20040;-73
2022/11/23 00:30:11;;;;;;;6.63;3.15;;;;;;;;;;5067629;28;20036;-73
2022/11/23 00:32:37;;;;;;;7.70;3.17;;;;;;;;;;5074236;28;20384;-73
2022/11/23 00:35:03;;;;;;;10.88;4.72;;;;;;;;;;5067098;28;20144;-73
2022/11/23 00:37:29;;;;;;;13.25;7.72;;;;;;;;;;5061759;28;20082;-73
2022/11/23 00:39:55;;;;;;;15.52;9.15;;;;;;;;;;5067460;28;20033;-73
2022/11/23 00:42:21;;;;;;;16.83;9.38;;;;;;;;;;5072669;28;20039;-73
2022/11/23 00:44:47;;;;;;;17.45;7.22;;;;;;;;;;5083286;28;20043;-73
2022/11/23 00:47:13;;;;;;;16.02;7.20;;;;;;;;;;5074067;28;20897;-73
2022/11/23 00:49:39;;;;;;;21.27;10.48;;;;;;;;;;5065480;28;20038;-73
2022/11/23 00:52:05;;;;;;;19.73;9.15;;;;;;;;;;5075877;28;20048;-73
2022/11/23 00:54:31;;;;;;;13.88;7.90;;;;;;;;;;5067349;28;20053;-73
2022/11/23 00:56:57;;;;;;;17.25;8.07;;;;;;;;;;5065595;28;20036;-73
2022/11/23 00:59:23;;;;;;;10.32;3.78;;;;;;;;;;5052243;28;20028;-74
2022/11/23 01:01:49;;;;;;;8.05;3.58;;;;;;;;;;5068971;28;20087;-74
2022/11/23 01:04:15;;;;;;;9.07;3.72;;;;;;;;;;5068961;28;20413;-73
2022/11/23 01:06:41;;;;;;;18.00;9.73;;;;;;;;;;5066067;28;20051;-73
2022/11/23 01:09:19;;;;;;;21.80;11.98;;;;;;;;;;5062311;28;20040;-73
2022/11/23 01:11:45;;;;;;;12.68;7.00;;;;;;;;;;5065146;28;20483;-73
2022/11/23 01:14:11;;;;;;;12.43;6.68;;;;;;;;;;5076130;28;20124;-73
2022/11/23 01:16:39;;;;;;;12.13;6.10;;;;;;;;;;5068848;28;20895;-73
2022/11/23 01:19:06;;;;;;;10.40;4.60;;;;;;;;;;5060477;28;20077;-73
2022/11/23 01:21:33;;;;;;;10.68;5.85;;;;;;;;;;5071713;28;20622;-74
2022/11/23 01:23:59;;;;;;;9.50;4.55;;;;;;;;;;5079280;28;20039;-73
2022/11/23 01:26:26;;;;;;;8.48;4.43;;;;;;;;;;5072107;28;20067;-73
2022/11/23 01:28:52;;;;;;;10.10;4.35;;;;;;;;;;5084752;28;20039;-73
2022/11/23 01:31:19;;;;;;;8.88;4.15;;;;;;;;;;5076805;28;20076;-73
2022/11/23 01:33:45;;;;;;;10.80;3.40;;;;;;;;;;5075973;28;20107;-73
2022/11/23 01:36:19;;;;;;;8.18;2.83;;;;;;;;;;5063106;28;20417;-73
2022/11/23 01:38:45;;;;;;;8.55;3.00;;;;;;;;;;5067203;28;20032;-73
2022/11/23 01:41:13;;;;;;;7.78;2.97;;;;;;;;;;5050341;28;20047;-73
2022/11/23 01:43:40;;;;;;;8.75;3.28;;;;;;;;;;5059948;28;20036;-74
2022/11/23 01:46:06;;;;;;;8.25;3.58;;;;;;;;;;5079091;28;20028;-73
2022/11/23 01:48:44;;;;;;;8.93;2.63;;;;;;;;;;5077746;28;20757;-73
2022/11/23 01:51:13;;;;;;;6.47;3.35;;;;;;;;;;5066580;28;20081;-73
2022/11/23 01:53:40;;;;;;;8.43;2.83;;;;;;;;;;5064941;28;20029;-73
2022/11/23 01:56:06;;;;;;;7.93;3.50;;;;;;;;;;5070220;28;20095;-73
2022/11/23 01:58:34;;;;;;;6.15;2.72;;;;;;;;;;5074494;28;20123;-73
2022/11/23 02:01:00;;;;;;;6.60;3.08;;;;;;;;;;5076796;28;20359;-74
2022/11/23 02:03:28;;;;;;;6.53;2.60;;;;;;;;;;5064010;28;20021;-74
2022/11/23 02:05:58;;;;;;;8.02;2.22;;;;;;;;;;5068064;28;20032;-74
2022/11/23 02:08:25;;;;;;;7.43;2.40;;;;;;;;;;5067371;28;20036;-73
2022/11/23 02:10:52;;;;;;;7.72;2.80;;;;;;;;;;5068216;28;20044;-73
2022/11/23 02:13:18;;;;;;;8.10;2.92;;;;;;;;;;5057235;28;20032;-73
2022/11/23 02:15:44;;;;;;;8.23;3.10;;;;;;;;;;5079713;28;20878;-73
2022/11/23 02:18:13;;;;;;;7.35;2.17;;;;;;;;;;5075167;28;20031;-74
2022/11/23 02:20:39;;;;;;;6.68;2.92;;;;;;;;;;5061900;28;20784;-73
2022/11/23 02:23:05;;;;;;;5.97;2.72;;;;;;;;;;5068692;28;20115;-73
2022/11/23 02:25:34;;;;;;;7.18;2.30;;;;;;;;;;5060864;28;20124;-73
2022/11/23 02:28:01;;;;;;;7.05;2.20;;;;;;;;;;5067735;28;20024;-73
2022/11/23 02:30:28;;;;;;;7.97;2.28;;;;;;;;;;5061021;28;20519;-73
2022/11/23 02:32:54;;;;;;;6.13;2.30;;;;;;;;;;5066964;28;20039;-74
2022/11/23 02:35:20;;;;;;;6.60;2.13;;;;;;;;;;5063914;28;20032;-73
2022/11/23 02:37:47;;;;;;;5.97;2.03;;;;;;;;;;5062048;28;20473;-73
2022/11/23 02:40:33;;;;;;;9.23;2.42;;;;;;;;;;5063743;28;20135;-74
2022/11/23 02:43:00;;;;;;;6.68;2.50;;;;;;;;;;5058239;28;20066;-73
2022/11/23 02:45:26;;;;;;;7.55;2.20;;;;;;;;;;5055190;28;20037;-73
2022/11/23 02:47:52;;;;;;;8.23;2.00;;;;;;;;;;5075699;28;20020;-73
2022/11/23 02:50:18;;;;;;;6.32;1.95;;;;;;;;;;5068135;28;20462;-73
2022/11/23 02:52:44;;;;;;;7.07;3.17;;;;;;;;;;5062384;28;20103;-73
2022/11/23 02:55:10;;;;;;;5.93;2.78;;;;;;;;;;5072553;28;20161;-74
2022/11/23 02:57:36;;;;;;;5.90;2.20;;;;;;;;;;5070160;28;20484;-73
2022/11/23 03:00:02;;;;;;;10.77;2.10;;;;;;;;;;5073678;28;20074;-73
2022/11/23 03:02:28;;;;;;;6.43;1.60;;;;;;;;;;5064255;28;20084;-73
2022/11/23 03:04:54;;;;;;;4.72;1.83;;;;;;;;;;5068851;28;20716;-73
2022/11/23 03:07:20;;;;;;;5.30;2.20;;;;;;;;;;5058988;28;20120;-73
2022/11/23 03:09:46;;;;;;;5.57;1.92;;;;;;;;;;5081150;28;20047;-73
2022/11/23 03:12:12;;;;;;;8.45;2.15;;;;;;;;;;5069426;28;20102;-73
2022/11/23 03:14:38;;;;;;;7.63;2.08;;;;;;;;;;5075103;28;20028;-73
2022/11/23 03:17:04;;;;;;;8.20;2.83;;;;;;;;;;5074409;28;20043;-73
2022/11/23 03:19:30;;;;;;;6.63;2.10;;;;;;;;;;5064752;28;20037;-73
2022/11/23 03:21:56;;;;;;;5.88;2.22;;;;;;;;;;5072574;28;20043;-73
2022/11/23 03:24:22;;;;;;;5.63;2.10;;;;;;;;;;5072283;28;20069;-73
2022/11/23 03:26:48;;;;;;;3.88;1.80;;;;;;;;;;5059695;28;20066;-74
2022/11/23 03:29:14;;;;;;;6.63;1.67;;;;;;;;;;5059329;28;20116;-73
2022/11/23 03:31:40;;;;;;;6.35;1.90;;;;;;;;;;5068988;28;20120;-73
2022/11/23 03:34:06;;;;;;;6.68;1.70;;;;;;;;;;5073207;28;20416;-73
2022/11/23 03:36:32;;;;;;;4.18;1.30;;;;;;;;;;5069400;28;20028;-73
2022/11/23 03:38:58;;;;;;;3.10;0.90;;;;;;;;;;5054455;28;20723;-73
2022/11/23 03:41:24;;;;;;;4.80;1.00;;;;;;;;;;5071102;28;20036;-73
2022/11/23 03:43:50;;;;;;;5.72;1.50;;;;;;;;;;5065110;28;20040;-73
2022/11/23 03:46:16;;;;;;;5.53;1.45;;;;;;;;;;5069201;28;20032;-74
2022/11/23 03:48:42;;;;;;;7.13;1.55;;;;;;;;;;5072552;28;20036;-74
2022/11/23 03:51:08;;;;;;;8.18;1.83;;;;;;;;;;5053394;28;20494;-73
2022/11/23 03:53:34;;;;;;;5.57;1.60;;;;;;;;;;5061788;28;20112;-73
2022/11/23 03:56:00;;;;;;;6.82;2.97;;;;;;;;;;5064896;28;20055;-73
2022/11/23 03:58:26;;;;;;;5.75;2.15;;;;;;;;;;5065377;28;20035;-74
2022/11/23 04:00:53;;;;;;;8.35;2.63;;;;;;;;;;5067092;28;20082;-74
2022/11/23 04:03:19;;;;;;;8.10;3.15;;;;;;;;;;5066573;28;20048;-73
2022/11/23 04:05:45;;;;;;;8.52;3.42;;;;;;;;;;5066650;28;20036;-74
2022/11/23 04:08:11;;;;;;;6.90;2.90;;;;;;;;;;5059051;28;20043;-73
2022/11/23 04:10:37;;;;;;;10.35;5.68;;;;;;;;;;5060331;28;20033;-73
2022/11/23 04:13:03;;;;;;;12.93;6.32;;;;;;;;;;5066035;28;20116;-73
2022/11/23 04:15:29;;;;;;;16.83;13.07;;;;;;;;;;5070182;28;20035;-73
2022/11/23 04:17:55;;;;;;;17.33;13.32;;;;;;;;;;5072131;28;20383;-73
2022/11/23 04:20:21;;;;;;;9.80;6.40;;;;;;;;;;5071569;28;20032;-73
2022/11/23 04:22:47;;;;;;;16.10;11.45;;;;;;;;;;5070188;28;20787;-73
2022/11/23 04:25:13;;;;;;;17.70;12.77;;;;;;;;;;5071551;28;20041;-73
2022/11/23 04:27:39;;;;;;;18.27;12.57;;;;;;;;;;5079074;28;20040;-73
2022/11/23 04:30:05;;;;;;;17.83;11.30;;;;;;;;;;5077940;28;20170;-74
2022/11/23 04:32:31;;;;;;;13.32;8.93;;;;;;;;;;5069212;28;20074;-74
2022/11/23 04:34:57;;;;;;;12.55;7.43;;;;;;;;;;5075397;28;20028;-74
2022/11/23 04:37:23;;;;;;;9.88;5.13;;;;;;;;;;5052282;28;20405;-73
2022/11/23 04:39:49;;;;;;;8.48;4.78;;;;;;;;;;5064664;28;20034;-73
2022/11/23 04:42:15;;;;;;;11.15;4.60;;;;;;;;;;5061439;28;20039;-73
2022/11/23 04:44:41;;;;;;;10.60;5.88;;;;;;;;;;5078388;28;20095;-73
2022/11/23 04:47:08;;;;;;;8.93;5.00;;;;;;;;;;5076196;28;20128;-73
2022/11/23 04:49:34;;;;;;;7.07;3.88;;;;;;;;;;5077754;28;20045;-74
2022/11/23 04:52:00;;;;;;;7.78;3.40;;;;;;;;;;5084782;28;20359;-75
2022/11/23 04:54:26;;;;;;;7.88;3.70;;;;;;;;;;5083174;28;20035;-74
2022/11/23 04:56:53;;;;;;;9.50;3.88;;;;;;;;;;5067816;28;20033;-73
2022/11/23 04:59:19;;;;;;;9.18;3.53;;;;;;;;;;5065447;28;20544;-74
2022/11/23 05:01:45;;;;;;;6.60;2.63;;;;;;;;;;5070422;28;20041;-73
2022/11/23 05:04:11;;;;;;;8.73;4.65;;;;;;;;;;5067793;28;20074;-74
2022/11/23 05:06:37;;;;;;;9.82;4.70;;;;;;;;;;5054152;28;20036;-74
2022/11/23 05:09:03;;;;;;;13.15;6.00;;;;;;;;;;5060714;28;20473;-74
2022/11/23 05:11:29;;;;;;;12.95;5.97;;;;;;;;;;5077979;28;20028;-73
2022/11/23 05:13:55;;;;;;;6.95;2.80;;;;;;;;;;5062037;28;20036;-74
2022/11/23 05:16:21;;;;;;;11.82;2.80;;;;;;;;;;5071804;28;20036;-74
2022/11/23 05:18:47;;;;;;;8.00;2.40;;;;;;;;;;5065601;28;20482;-73
2022/11/23 05:21:13;;;;;;;12.13;3.90;;;;;;;;;;5062277;28;20033;-74
2022/11/23 05:23:39;;;;;;;11.48;4.85;;;;;;;;;;5067482;28;20499;-74
2022/11/23 05:26:05;;;;;;;13.60;5.00;;;;;;;;;;5075300;28;20056;-74
2022/11/23 05:28:31;;;;;;;10.52;3.70;;;;;;;;;;5068916;28;20573;-74
2022/11/23 05:30:57;;;;;;;7.43;2.20;;;;;;;;;;5073699;28;20100;-73
2022/11/23 05:33:23;;;;;;;2.72;0.57;;;;;;;;;;5071179;28;20035;-74
2022/11/23 05:35:49;;;;;;;4.35;0.70;;;;;;;;;;5055531;28;20496;-74
2022/11/23 05:38:15;;;;;;;8.32;2.78;;;;;;;;;;5067244;28;20069;-74
2022/11/23 05:40:41;;;;;;;12.02;3.70;;;;;;;;;;5070978;28;20485;-73
2022/11/23 05:43:07;;;;;;;12.43;3.50;;;;;;;;;;5064422;28;20397;-74
2022/11/23 05:45:33;;;;;;;10.05;2.30;;;;;;;;;;5065391;28;20148;-74
2022/11/23 05:47:59;;;;;;;6.93;1.48;;;;;;;;;;5070744;28;20525;-74
2022/11/23 05:50:26;;;;;;;2.08;0.70;;;;;;;;;;5070113;28;20047;-73
2022/11/23 05:52:52;;;;;;;3.88;0.80;;;;;;;;;;5064844;28;20061;-74
2022/11/23 05:55:19;;;;;;;9.88;5.35;;;;;;;;;;5063676;28;20063;-74
2022/11/23 05:57:45;;;;;;;4.35;1.58;;;;;;;;;;5063745;28;20031;-74
2022/11/23 06:00:11;;;;;;;9.10;2.03;;;;;;;;;;5065530;28;20458;-74
2022/11/23 06:02:38;;;;;;;5.07;1.60;;;;;;;;;;5056956;28;20029;-74
2022/11/23 06:05:04;;;;;;;11.65;5.35;;;;;;;;;;5063338;28;20119;-74
2022/11/23 06:07:34;;;;;;;4.63;0.90;;;;;;;;;;5073277;28;20051;-74
2022/11/23 06:10:00;;;;;;;5.95;1.83;;;;;;;;;;5073886;28;20052;-74
2022/11/23 06:12:29;;;;;;;5.80;1.85;;;;;;;;;;5072920;28;20388;-74
2022/11/23 06:14:55;;;;;;;7.05;1.95;;;;;;;;;;5075870;28;20466;-74
2022/11/23 06:17:21;;;;;;;9.82;2.30;;;;;;;;;;5074496;28;20028;-73
2022/11/23 06:19:47;;;;;;;6.68;2.88;;;;;;;;;;5057124;28;20227;-74
2022/11/23 06:22:14;;;;;;;6.07;3.33;;;;;;;;;;5064092;28;20466;-74
2022/11/23 06:24:40;;;;;;;8.20;2.20;;;;;;;;;;5065905;28;20536;-74
2022/11/23 06:27:06;;;;;;;5.32;2.10;;;;;;;;;;5056939;28;20051;-74
2022/11/23 06:29:32;;;;;;;5.82;2.08;;;;;;;;;;5062649;28;20064;-74
2022/11/23 06:31:58;;;;;;;10.18;2.67;;;;;;;;;;5058024;28;20051;-74
2022/11/23 06:34:24;;;;;;;10.45;2.55;;;;;;;;;;5057971;28;20031;-74
2022/11/23 06:36:50;;;;;;;8.00;3.20;;;;;;;;;;5063019;28;20311;-75
2022/11/23 06:39:17;;;;;;;14.10;5.00;;;;;;;;;;5066529;28;20036;-74
2022/11/23 06:41:43;;;;;;;15.48;8.23;;;;;;;;;;5057378;28;20040;-74
2022/11/23 06:44:09;;;;;;;18.10;9.90;;;;;;;;;;5064927;28;20041;-74
2022/11/23 06:46:35;;;;;;;16.70;8.60;;;;;;;;;;5065299;28;20477;-74
2022/11/23 06:49:01;;;;;;;20.17;12.80;;;;;;;;;;5061272;28;20044;-74
2022/11/23 06:51:27;;;;;;;18.88;10.40;;;;;;;;;;5058475;28;20047;-74
2022/11/23 06:53:53;;;;;;;18.42;12.23;;;;;;;;;;5057931;28;20052;-74
2022/11/23 06:56:19;;;;;;;15.60;9.68;;;;;;;;;;5063260;28;20032;-74
2022/11/23 06:58:45;;;;;;;16.02;8.68;;;;;;;;;;5064506;28;20028;-74
2022/11/23 07:01:11;;;;;;;12.63;7.30;;;;;;;;;;5062563;28;20036;-74
2022/11/23 07:03:37;;;;;;;13.55;7.47;;;;;;;;;;5074220;28;20037;-74
2022/11/23 07:06:06;;;;;;;13.23;6.80;;;;;;;;;;5067744;28;20036;-74
2022/11/23 07:08:32;;;;;;;9.07;4.13;;;;;;;;;;5066243;28;20498;-74
2022/11/23 07:10:59;;;;;;;12.88;7.30;;;;;;;;;;5052891;28;20033;-74
2022/11/23 07:13:25;;;;;;;25.05;12.27;;;;;;;;;;5064175;28;20028;-74
2022/11/23 07:15:51;;;;;;;8.43;2.70;;;;;;;;;;5063885;28;20532;-74
2022/11/23 07:18:17;;;;;;;14.45;6.05;;;;;;;;;;5058556;28;20128;-74
2022/11/23 07:20:43;;;;;;;16.25;5.65;;;;;;;;;;5064109;28;20111;-74
2022/11/23 07:23:10;;;;;;;9.88;3.92;;;;;;;;;;5066561;28;20029;-74
2022/11/23 07:25:37;;;;;;;15.23;6.45;;;;;;;;;;5063737;28;20649;-74
2022/11/23 07:28:04;;;;;;;22.23;10.07;;;;;;;;;;5065616;28;20067;-74
2022/11/23 07:30:31;;;;;;;16.52;7.32;;;;;;;;;;5061111;28;20033;-74
2022/11/23 07:33:01;;;;;;;22.30;8.18;;;;;;;;;;5056172;28;20042;-74
2022/11/23 07:35:27;;;;;;;17.73;6.80;;;;;;;;;;5055255;28;20046;-74
2022/11/23 07:37:53;;;;;;;16.48;5.95;;;;;;;;;;5071290;28;20033;-74
2022/11/23 07:40:19;;;;;;;17.05;6.20;;;;;;;;;;5060356;28;20037;-73
2022/11/23 07:42:45;;;;;;;9.13;3.50;;;;;;;;;;5065104;28;20051;-74
2022/11/23 07:45:12;;;;;;;13.93;5.28;;;;;;;;;;5065787;28;20043;-74
2022/11/23 07:47:38;;;;;;;14.63;6.70;;;;;;;;;;5055535;28;20040;-74
2022/11/23 07:50:06;;;;;;;19.38;8.57;;;;;;;;;;5061881;28;20033;-74
2022/11/23 07:52:34;;;;;;;24.33;8.68;;;;;;;;;;5061357;28;20110;-74
2022/11/23 07:55:00;;;;;;;17.02;6.45;;;;;;;;;;5064993;28;20139;-74
2022/11/23 07:57:26;;;;;;;24.40;12.07;;;;;;;;;;5073150;28;20032;-74
2022/11/23 07:59:52;;;;;;;8.90;3.90;;;;;;;;;;5061740;28;20033;-74
2022/11/23 08:02:18;;;;;;;10.50;3.97;;;;;;;;;;5058299;28;20036;-74
2022/11/23 08:04:44;;;;;;;11.55;4.97;;;;;;;;;;5067882;28;20040;-73
2022/11/23 08:07:10;;;;;;;17.85;5.95;;;;;;;;;;5069194;28;20725;-74
2022/11/23 08:09:36;;;;;;;12.32;6.05;;;;;;;;;;5056732;28;20025;-73
2022/11/23 08:12:02;;;;;;;18.17;9.63;;;;;;;;;;5063626;28;20944;-74
2022/11/23 08:14:28;;;;;;;16.45;5.97;;;;;;;;;;5065062;28;20029;-74
2022/11/23 08:16:54;;;;;;;11.93;3.90;;;;;;;;;;5056912;28;20033;-73
2022/11/23 08:19:20;;;;;;;37.83;9.95;;;;;;;;;;5063397;28;20118;-74
2022/11/23 08:21:46;;;;;;;22.48;7.78;;;;;;;;;;5056723;28;20047;-74
2022/11/23 08:24:12;;;;;;;22.50;7.70;;;;;;;;;;5041848;28;20466;-74
2022/11/23 08:26:38;;;;;;;17.45;6.07;;;;;;;;;;5072635;28;20056;-74
2022/11/23 08:29:04;;;;;;;10.68;5.55;;;;;;;;;;5059312;28;20036;-75
2022/11/23 08:31:31;;;;;;;10.93;4.93;;;;;;;;;;5064263;28;20033;-74
2022/11/23 08:33:57;;;;;;;18.60;8.05;;;;;;;;;;5064880;28;20020;-74
2022/11/23 08:36:23;;;;;;;19.02;9.88;;;;;;;;;;5048742;28;20449;-74
2022/11/23 08:38:50;;;;;;;21.08;11.35;;;;;;;;;;5061658;28;20028;-74
2022/11/23 08:41:19;;;;;;;18.13;9.18;;;;;;;;;;5064124;28;20503;-74
2022/11/23 08:43:46;;;;;;;13.32;4.78;;;;;;;;;;5066557;28;20063;-74
2022/11/23 08:46:11;;;;;;;11.98;5.00;;;;;;;;;;5064794;28;20047;-74
2022/11/23 08:48:37;;;;;;;9.90;4.40;;;;;;;;;;5065918;28;20370;-74
2022/11/23 08:51:04;;;;;;;13.65;3.72;;;;;;;;;;5068656;28;20128;-74
2022/11/23 08:53:30;;;;;;;13.02;4.88;;;;;;;;;;5054507;28;20028;-74
2022/11/23 08:55:56;;;;;;;10.90;4.32;;;;;;;;;;5067663;28;20036;-74
2022/11/23 08:58:22;;;;;;;15.25;6.20;;;;;;;;;;5061449;28;20067;-74
2022/11/23 09:00:48;;;;;;;16.15;6.03;;;;;;;;;;5049910;28;20479;-73
2022/11/23 09:03:14;;;;;;;14.07;4.85;;;;;;;;;;5064846;28;20032;-74
2022/11/23 09:05:40;;;;;;;13.75;6.43;;;;;;;;;;5072551;28;20037;-74
2022/11/23 09:08:06;;;;;;;19.52;6.35;;;;;;;;;;5062798;28;20532;-74
2022/11/23 09:10:33;;;;;;;36.38;19.85;;;;;;;;;;5062448;28;20071;-74
2022/11/23 09:12:59;;;;;;;26.40;11.43;;;;;;;;;;5062674;28;20025;-74
2022/11/23 09:15:25;;;;;;;13.80;6.93;;;;;;;;;;5069784;28;20119;-74
2022/11/23 09:17:51;;;;;;;14.13;4.65;;;;;;;;;;5067300;28;20021;-74
2022/11/23 09:20:18;;;;;;;15.75;7.18;;;;;;;;;;5067492;28;20721;-74
2022/11/23 09:22:49;;;;;;;13.65;7.22;;;;;;;;;;5061351;28;20104;-74
2022/11/23 09:25:15;;;;;;;23.05;15.23;;;;;;;;;;5074201;28;20424;-74
2022/11/23 09:27:42;;;;;;;15.10;8.13;;;;;;;;;;5059914;28;20114;-74
2022/11/23 09:30:08;;;;;;;15.63;9.02;;;;;;;;;;5075198;28;20071;-74
2022/11/23 09:32:34;;;;;;;15.55;8.88;;;;;;;;;;5067964;28;20028;-74
2022/11/23 09:35:00;;;;;;;10.98;4.70;;;;;;;;;;5064969;28;20420;-74
2022/11/23 09:37:26;;;;;;;12.77;4.22;;;;;;;;;;5064614;28;20037;-74
2022/11/23 09:39:52;;;;;;;12.45;4.00;;;;;;;;;;5072151;28;20111;-74
2022/11/23 09:42:37;;;;;;;12.80;6.78;;;;;;;;;;5065891;28;20549;-74
2022/11/23 09:45:21;;;;;;;12.50;5.10;;;;;;;;;;5064861;28;20374;-74
2022/11/23 09:47:53;;;;;;;9.98;2.90;;;;;;;;;;5071149;28;20032;-74
2022/11/23 09:50:28;;;;;;;9.98;3.00;;;;;;;;;;5064704;28;20131;-74
2022/11/23 09:52:54;;;;;;;9.35;3.20;;;;;;;;;;5062893;28;20038;-74
2022/11/23 09:55:36;;;;;;;7.65;3.15;;;;;;;;;;5062020;28;20032;-74
2022/11/23 09:58:03;;;;;;;7.25;3.03;;;;;;;;;;5062391;28;20029;-74
2022/11/23 10:01:02;;;;;;;13.40;3.45;;;;;;;;;;5065748;28;20669;-74
2022/11/23 10:03:29;;;;;;;13.02;4.43;;;;;;;;;;5040642;28;20067;-74
2022/11/23 10:05:55;;;;;;;10.68;3.83;;;;;;;;;;5070198;28;20083;-74
2022/11/23 10:08:30;;;;;;;13.52;3.90;;;;;;;;;;5069494;28;20059;-73
2022/11/23 10:10:56;;;;;;;8.57;3.03;;;;;;;;;;5059918;28;20061;-73
2022/11/23 10:13:31;;;;;;;8.68;2.75;;;;;;;;;;5060864;28;20059;-73
2022/11/23 10:16:03;;;;;;;5.50;2.13;;;;;;;;;;5053548;28;20032;-74
2022/11/23 10:18:47;;;;;;;7.35;2.10;;;;;;;;;;5060374;28;20032;-74
2022/11/23 10:21:13;;;;;;;8.07;2.47;;;;;;;;;;5069738;28;20035;-74
2022/11/23 10:23:46;;;;;;;8.93;3.42;;;;;;;;;;5064794;28;20763;-74
2022/11/23 10:26:15;;;;;;;7.00;2.47;;;;;;;;;;5066631;28;20888;-74
2022/11/23 10:28:41;;;;;;;8.93;1.90;;;;;;;;;;5057515;28;20039;-74
2022/11/23 10:31:13;;;;;;;10.27;3.00;;;;;;;;;;5065848;28;20044;-74
2022/11/23 10:33:42;;;;;;;8.23;2.33;;;;;;;;;;5058850;28;20028;-74
2022/11/23 10:36:12;;;;;;;5.25;1.67;;;;;;;;;;5058446;28;20032;-74
2022/11/23 10:38:38;;;;;;;8.60;1.63;;;;;;;;;;5065342;28;20025;-74
2022/11/23 10:41:12;;;;;;;4.60;1.38;;;;;;;;;;5048290;28;20035;-74
2022/11/23 10:43:57;;;;;;;8.50;2.28;;;;;;;;;;5068670;28;20036;-74
2022/11/23 10:46:29;;;;;;;8.02;2.30;;;;;;;;;;5055710;28;20715;-74
2022/11/23 10:48:56;;;;;;;8.95;2.30;;;;;;;;;;5067366;28;20028;-74
2022/11/23 10:51:34;;;;;;;9.98;2.58;;;;;;;;;;5063214;28;20162;-74
2022/11/23 10:54:02;;;;;;;7.45;1.90;;;;;;;;;;5061608;28;20481;-74
2022/11/23 10:56:29;;;;;;;8.30;3.33;;;;;;;;;;5063771;28;20478;-74
2022/11/23 10:58:55;;;;;;;7.45;2.17;;;;;;;;;;5064550;28;20109;-74
2022/11/23 11:01:29;;;;;;;7.25;2.10;;;;;;;;;;5067580;28;20398;-74
2022/11/23 11:03:55;;;;;;;5.32;1.70;;;;;;;;;;5067074;28;20029;-74
2022/11/23 11:06:26;;;;;;;7.85;1.55;;;;;;;;;;5044972;28;20362;-74
2022/11/23 11:08:56;;;;;;;5.22;1.65;;;;;;;;;;5063428;28;20111;-74
2022/11/23 11:11:22;;;;;;;8.52;1.75;;;;;;;;;;5067234;28;20045;-74
2022/11/23 11:13:48;;;;;;;10.00;1.33;;;;;;;;;;5066234;28;20053;-74
2022/11/23 11:16:20;;;;;;;6.78;1.88;;;;;;;;;;5060569;28;20488;-74
2022/11/23 11:18:46;;;;;;;4.03;1.17;;;;;;;;;;5064569;28;20024;-74
2022/11/23 11:21:22;;;;;;;41.45;19.13;;;;;;;;;;5067506;28;20037;-74
2022/11/23 11:24:02;;;;;;;26.55;11.98;;;;;;;;;;5064514;28;20147;-74
2022/11/23 11:26:29;;;;;;;36.38;16.30;;;;;;;;;;5063339;28;20680;-74
2022/11/23 11:29:03;;;;;;;19.30;8.55;;;;;;;;;;5061898;28;20046;-74
2022/11/23 11:31:49;;;;;;;8.75;2.95;;;;;;;;;;5055018;28;20140;-74
2022/11/23 11:34:35;;;;;;;10.02;2.10;;;;;;;;;;5057168;28;20032;-74
2022/11/23 11:37:14;;;;;;;9.32;3.45;;;;;;;;;;5052081;28;20095;-74
2022/11/23 11:39:58;;;;;;;8.27;2.97;;;;;;;;;;5055637;28;20080;-74
2022/11/23 11:42:32;;;;;;;5.07;1.80;;;;;;;;;;5059284;28;20032;-74
2022/11/23 11:44:59;;;;;;;4.80;1.58;;;;;;;;;;5059882;28;20064;-74
2022/11/23 11:47:33;;;;;;;5.85;1.63;;;;;;;;;;5059344;28;20044;-74
2022/11/23 11:50:01;;;;;;;8.63;1.92;;;;;;;;;;5070265;28;20138;-74
2022/11/23 11:52:40;;;;;;;5.50;1.90;;;;;;;;;;5062049;28;20111;-74
2022/11/23 11:55:12;;;;;;;8.82;2.03;;;;;;;;;;5060431;28;20040;-74
2022/11/23 11:57:47;;;;;;;6.57;1.67;;;;;;;;;;5061089;28;20804;-74
2022/11/23 12:00:15;;;;;;;7.40;2.15;;;;;;;;;;5055280;28;20037;-74
2022/11/23 12:03:04;;;;;;;7.57;1.90;;;;;;;;;;5060354;28;20032;-74
2022/11/23 12:05:36;;;;;;;8.38;1.98;;;;;;;;;;5049298;28;20052;-74
2022/11/23 12:08:02;;;;;;;9.25;2.83;;;;;;;;;;5059380;28;20041;-74
2022/11/23 12:10:32;;;;;;;16.40;6.45;;;;;;;;;;5061471;28;20040;-74
2022/11/23 12:12:58;;;;;;;18.88;7.50;;;;;;;;;;5062167;28;20244;-74
2022/11/23 12:15:27;;;;;;;18.02;8.30;;;;;;;;;;5058408;28;20800;-74
2022/11/23 12:18:14;;;;;;;12.27;6.68;;;;;;;;;;5071982;28;20056;-73
2022/11/23 12:21:02;;;;;;;12.32;6.10;;;;;;;;;;5062797;28;20406;-74
2022/11/23 12:23:28;;;;;;;12.10;5.32;;;;;;;;;;5061158;28;20128;-74
2022/11/23 12:26:03;;;;;;;18.10;11.25;;;;;;;;;;5067086;28;20302;-75
2022/11/23 12:28:32;;;;;;;26.95;15.07;;;;;;;;;;5061331;28;20093;-74
2022/11/23 12:31:16;;;;;;;11.45;5.80;;;;;;;;;;5065420;28;20036;-74
2022/11/23 12:34:12;;;;;;;8.18;2.30;;;;;;;;;;5062549;28;20039;-74
2022/11/23 12:36:50;;;;;;;5.97;1.70;;;;;;;;;;4973987;28;20535;-74
2022/11/23 12:39:19;;;;;;;7.10;1.80;;;;;;;;;;5058593;28;20028;-74
2022/11/23 12:42:00;;;;;;;5.10;1.35;;;;;;;;;;5070166;28;20037;-74
2022/11/23 12:44:39;;;;;;;7.30;1.98;;;;;;;;;;5066271;28;20641;-74
2022/11/23 12:47:23;;;;;;;8.60;3.13;;;;;;;;;;5064929;28;20052;-74
2022/11/23 12:49:52;;;;;;;9.45;3.03;;;;;;;;;;5062918;28;20024;-75
2022/11/23 12:52:37;;;;;;;4.13;1.52;;;;;;;;;;5070773;28;20036;-74
2022/11/23 12:55:09;;;;;;;7.03;1.70;;;;;;;;;;5063108;28;20031;-74
2022/11/23 12:57:48;;;;;;;4.97;1.48;;;;;;;;;;5056903;28;20032;-74
2022/11/23 13:00:15;;;;;;;5.13;1.50;;;;;;;;;;5070484;28;20036;-74
2022/11/23 13:02:44;;;;;;;9.48;2.47;;;;;;;;;;5069620;28;20025;-74
2022/11/23 13:05:19;;;;;;;7.10;1.55;;;;;;;;;;5056055;28;20860;-74
2022/11/23 13:07:48;;;;;;;6.20;1.67;;;;;;;;;;5067143;28;20036;-74
2022/11/23 13:10:20;;;;;;;7.55;1.80;;;;;;;;;;5067477;28;20158;-74
2022/11/23 13:12:49;;;;;;;8.20;1.67;;;;;;;;;;5066354;28;20157;-74
2022/11/23 13:15:26;;;;;;;6.88;1.55;;;;;;;;;;5053995;28;20548;-74
2022/11/23 13:17:56;;;;;;;9.13;2.47;;;;;;;;;;5070432;28;20036;-74
2022/11/23 13:20:24;;;;;;;7.88;2.13;;;;;;;;;;5064989;28;20036;-74
2022/11/23 13:22:51;;;;;;;7.13;2.13;;;;;;;;;;5061191;28;20033;-74
2022/11/23 13:25:20;;;;;;;7.75;2.08;;;;;;;;;;5063877;28;20044;-74
2022/11/23 13:27:49;;;;;;;11.27;2.65;;;;;;;;;;5068925;28;20032;-74
2022/11/23 13:30:32;;;;;;;12.18;2.65;;;;;;;;;;5065410;28;20104;-74
2022/11/23 13:33:21;;;;;;;6.53;2.22;;;;;;;;;;5060298;28;20061;-74
2022/11/23 13:35:50;;;;;;;6.35;2.53;;;;;;;;;;5059840;28;20068;-74
2022/11/23 13:38:16;;;;;;;17.55;3.60;;;;;;;;;;5060208;28;20138;-74
2022/11/23 13:40:43;;;;;;;7.32;2.42;;;;;;;;;;5073180;28;20502;-74
2022/11/23 13:43:15;;;;;;;11.20;3.10;;;;;;;;;;5057092;28;20036;-74
2022/11/23 13:45:42;;;;;;;7.90;3.10;;;;;;;;;;5071981;28;20537;-74
2022/11/23 13:48:08;;;;;;;13.07;3.28;;;;;;;;;;5067417;28;20415;-74
2022/11/23 13:50:34;;;;;;;7.95;3.47;;;;;;;;;;5062341;28;20037;-74
2022/11/23 13:53:01;;;;;;;11.25;3.90;;;;;;;;;;5066430;28;20039;-74
2022/11/23 13:55:37;;;;;;;5.80;2.45;;;;;;;;;;5068692;28;20555;-74
2022/11/23 13:58:22;;;;;;;7.72;2.40;;;;;;;;;;5056397;28;20029;-74
2022/11/23 14:00:49;;;;;;;6.78;2.53;;;;;;;;;;5062135;28;20542;-74
2022/11/23 14:03:34;;;;;;;9.95;3.20;;;;;;;;;;5060081;28;20104;-74
2022/11/23 14:06:01;;;;;;;13.13;2.75;;;;;;;;;;5065969;28;20588;-74
2022/11/23 14:08:27;;;;;;;8.75;2.53;;;;;;;;;;5063038;28;20033;-74
2022/11/23 14:10:53;;;;;;;10.75;3.63;;;;;;;;;;5070359;28;20032;-74
2022/11/23 14:13:21;;;;;;;9.05;2.78;;;;;;;;;;5059726;28;20033;-74
2022/11/23 14:15:55;;;;;;;11.68;4.13;;;;;;;;;;5059760;28;20059;-74
2022/11/23 14:18:21;;;;;;;8.82;3.20;;;;;;;;;;5068889;28;20040;-74
2022/11/23 14:21:06;;;;;;;11.20;3.22;;;;;;;;;;5068095;28;20662;-74
2022/11/23 14:23:44;;;;;;;10.15;3.20;;;;;;;;;;5065204;28;20028;-74
2022/11/23 14:26:34;;;;;;;10.80;3.60;;;;;;;;;;5071854;28;20040;-74
2022/11/23 14:29:17;;;;;;;9.73;3.60;;;;;;;;;;5073765;28;20056;-74
2022/11/23 14:31:57;;;;;;;10.65;2.92;;;;;;;;;;5061313;28;20190;-74
2022/11/23 14:34:35;;;;;;;13.27;2.80;;;;;;;;;;5060195;28;20029;-74
2022/11/23 14:37:11;;;;;;;10.73;3.05;;;;;;;;;;5065799;28;20033;-74
2022/11/23 14:39:52;;;;;;;12.63;3.20;;;;;;;;;;5066141;28;20033;-74
2022/11/23 14:42:19;;;;;;;6.97;2.55;;;;;;;;;;5061964;28;20794;-74
2022/11/23 14:44:47;;;;;;;9.50;2.72;;;;;;;;;;5064974;28;20146;-74